Time;durP1;ratioP1;P1;durP2;ratioP2;P2;SDS_P1;SDS_P2;PMS_P1;PMS_P2;Temp;Humidity;BMP_temperature;BMP_pressure;BME280_temperature;BME280_humidity;BME280_pressure;Samples;Min_cycle;Max_cycle;Signal;HPM_P1;HPM_P2
2023/03/02 00:02:07;;;;;;;854.42;53.20;;;0.90;99.90;;;-0.78;100.00;102365.91;5057648;28;20120;-76
2023/03/02 00:04:47;;;;;;;715.60;45.97;;;0.90;99.90;;;-0.79;100.00;102354.72;5064615;28;20036;-77
2023/03/02 00:07:24;;;;;;;829.33;48.85;;;0.80;99.90;;;-0.85;100.00;102357.13;5033336;28;20040;-76
2023/03/02 00:09:51;;;;;;;774.35;48.35;;;0.90;99.90;;;-0.77;100.00;102357.34;5032612;28;20055;-76
2023/03/02 00:12:17;;;;;;;746.75;46.28;;;0.80;99.90;;;-0.85;100.00;102359.72;5044947;28;20033;-77
2023/03/02 00:14:43;;;;;;;729.22;45.92;;;0.80;99.90;;;-0.89;100.00;102355.28;5036076;28;20105;-76
2023/03/02 00:17:09;;;;;;;688.97;42.20;;;0.80;99.90;;;-0.95;100.00;102366.38;5048104;28;20025;-77
2023/03/02 00:19:35;;;;;;;902.35;51.70;;;0.70;99.90;;;-0.96;100.00;102364.59;5018059;28;20035;-77
2023/03/02 00:22:02;;;;;;;681.65;43.45;;;0.70;99.90;;;-0.98;100.00;102358.50;5028110;28;20709;-77
2023/03/02 00:24:28;;;;;;;703.40;44.95;;;0.70;99.90;;;-1.01;100.00;102361.03;5047301;28;20180;-76
2023/03/02 00:26:54;;;;;;;628.08;39.17;;;0.70;99.90;;;-1.06;100.00;102362.59;5027976;28;20052;-76
2023/03/02 00:29:20;;;;;;;616.85;41.92;;;0.70;99.90;;;-1.06;100.00;102366.06;5056873;28;20096;-77
2023/03/02 00:31:46;;;;;;;638.80;38.92;;;0.70;99.90;;;-1.05;100.00;102367.81;5061533;28;20032;-77
2023/03/02 00:34:11;;;;;;;471.70;31.10;;;0.60;99.90;;;-1.13;100.00;102360.69;5035896;28;20116;-76
2023/03/02 00:36:37;;;;;;;624.38;38.35;;;0.60;99.90;;;-1.17;100.00;102357.13;5061934;28;20493;-77
2023/03/02 00:39:03;;;;;;;465.60;29.35;;;0.50;99.90;;;-1.20;100.00;102358.75;5036264;28;20047;-77
2023/03/02 00:41:29;;;;;;;615.55;36.17;;;0.50;99.90;;;-1.23;100.00;102354.38;5051576;28;20037;-76
2023/03/02 00:43:56;;;;;;;504.65;30.30;;;0.50;99.90;;;-1.30;100.00;102355.03;5055582;28;20127;-77
2023/03/02 00:46:24;;;;;;;575.60;37.90;;;0.40;99.90;;;-1.45;100.00;102343.44;5047834;28;20532;-77
2023/03/02 00:48:50;;;;;;;620.17;38.88;;;0.40;99.90;;;-1.37;100.00;102351.41;5047174;28;20025;-77
2023/03/02 00:51:17;;;;;;;623.30;38.38;;;0.40;99.90;;;-1.37;100.00;102353.13;5050314;28;20041;-77
2023/03/02 00:53:46;;;;;;;652.63;35.70;;;0.40;99.90;;;-1.38;100.00;102353.94;5056176;28;20032;-77
2023/03/02 00:56:13;;;;;;;648.33;36.15;;;0.30;99.90;;;-1.49;100.00;102356.19;5051023;28;20034;-77
2023/03/02 00:58:39;;;;;;;575.47;34.50;;;0.30;99.90;;;-1.51;100.00;102351.00;5036731;28;20119;-77
2023/03/02 01:01:10;;;;;;;665.38;36.55;;;0.30;99.90;;;-1.44;100.00;102359.81;5056736;28;20039;-77
2023/03/02 01:03:36;;;;;;;658.08;38.40;;;0.30;99.90;;;-1.43;100.00;102351.22;5054477;28;20162;-77
2023/03/02 01:06:03;;;;;;;683.70;38.85;;;0.30;99.90;;;-1.36;100.00;102362.59;5045012;28;20175;-77
2023/03/02 01:08:30;;;;;;;834.58;40.55;;;0.30;99.90;;;-1.53;100.00;102354.38;5043527;28;20505;-77
2023/03/02 01:11:00;;;;;;;539.92;36.20;;;0.30;99.90;;;-1.40;100.00;102360.75;5051051;28;20029;-77
2023/03/02 01:13:26;;;;;;;897.50;44.85;;;0.30;99.90;;;-1.35;100.00;102362.66;5037566;28;20028;-76
2023/03/02 01:16:04;;;;;;;726.10;38.90;;;0.40;99.90;;;-1.30;100.00;102355.91;5051156;28;20033;-77
2023/03/02 01:18:37;;;;;;;825.85;42.22;;;0.40;99.90;;;-1.29;100.00;102355.09;5053400;28;20036;-77
2023/03/02 01:21:07;;;;;;;725.75;42.05;;;0.40;99.90;;;-1.29;100.00;102355.09;5062510;28;20689;-76
2023/03/02 01:23:35;;;;;;;488.92;32.60;;;0.40;99.90;;;-1.31;100.00;102356.75;5067923;28;20108;-77
2023/03/02 01:26:01;;;;;;;746.88;43.92;;;0.40;99.90;;;-1.26;100.00;102352.56;5046600;28;20048;-77
2023/03/02 01:28:27;;;;;;;901.80;50.80;;;0.40;99.90;;;-1.32;100.00;102348.94;5061917;28;20028;-77
2023/03/02 01:30:53;;;;;;;698.38;44.28;;;0.40;99.90;;;-1.40;100.00;102347.84;5006982;28;20035;-77
2023/03/02 01:33:20;;;;;;;864.40;47.30;;;0.40;99.90;;;-1.35;100.00;102341.13;5057527;28;20463;-77
2023/03/02 01:35:46;;;;;;;564.90;40.05;;;0.40;99.90;;;-1.27;100.00;102343.09;5033275;28;20063;-77
2023/03/02 01:38:15;;;;;;;1002.75;52.78;;;0.40;99.90;;;-1.19;100.00;102340.69;5064322;28;20530;-77
2023/03/02 01:40:43;;;;;;;587.40;38.83;;;0.50;99.90;;;-1.19;100.00;102330.34;5037339;28;20472;-77
2023/03/02 01:43:15;;;;;;;602.13;37.28;;;-0.10;99.90;;;-1.49;100.00;102320.03;5055240;28;20058;-77
2023/03/02 01:45:52;;;;;;;727.80;40.95;;;0.40;99.90;;;-1.34;100.00;102319.59;5039769;28;20036;-78
2023/03/02 01:48:47;;;;;;;615.75;42.35;;;0.40;99.90;;;-1.19;100.00;102327.78;5066794;28;20115;-77
2023/03/02 01:51:17;;;;;;;924.90;46.63;;;0.50;99.90;;;-1.16;100.00;102322.69;5062708;28;20518;-77
2023/03/02 01:53:47;;;;;;;658.25;37.65;;;0.40;99.90;;;-1.22;100.00;102319.06;5059134;28;20055;-77
2023/03/02 01:56:19;;;;;;;565.92;33.28;;;0.40;99.90;;;-1.34;100.00;102320.50;5048895;28;20040;-78
2023/03/02 01:58:50;;;;;;;674.90;36.72;;;0.40;99.90;;;-1.30;100.00;102321.44;5038040;28;20151;-77
2023/03/02 02:01:16;;;;;;;721.28;37.15;;;0.30;99.90;;;-1.55;100.00;102313.00;5051456;28;20146;-77
2023/03/02 02:03:49;;;;;;;709.92;36.63;;;0.30;99.90;;;-1.58;100.00;102310.31;5051070;28;20492;-77
2023/03/02 02:07:11;;;;;;;268.60;27.95;;;0.30;99.90;;;-1.45;100.00;102307.28;5023157;28;21501;-78
2023/03/02 02:09:45;;;;;;;99.50;23.80;;;0.30;99.90;;;-1.40;100.00;102309.97;4954033;28;20114;-77
2023/03/02 02:12:18;;;;;;;148.27;27.77;;;0.30;99.90;;;-1.30;100.00;102298.16;5035856;28;20032;-77
2023/03/02 02:14:47;;;;;;;753.35;37.85;;;0.40;99.90;;;-1.25;100.00;102299.19;5051573;28;20070;-77
2023/03/02 02:17:15;;;;;;;646.90;36.13;;;0.30;99.90;;;-1.29;100.00;102295.63;5030114;28;20382;-78
2023/03/02 02:20:00;;;;;;;607.63;34.45;;;0.30;99.90;;;-1.38;100.00;102292.81;5066390;28;20057;-78
2023/03/02 02:23:06;;;;;;;616.88;35.70;;;0.30;99.90;;;-1.36;100.00;102295.41;5027164;28;20032;-77
2023/03/02 02:25:35;;;;;;;725.67;38.80;;;0.20;99.90;;;-1.54;100.00;102288.91;5050813;28;20193;-77
2023/03/02 02:28:07;;;;;;;747.70;39.35;;;0.20;99.90;;;-1.51;100.00;102286.44;5054235;28;20032;-77
2023/03/02 02:30:36;;;;;;;644.22;35.25;;;0.20;99.90;;;-1.50;100.00;102287.28;5054625;28;20040;-77
2023/03/02 02:33:03;;;;;;;568.72;31.75;;;0.20;99.90;;;-1.57;100.00;102283.66;5064632;28;20060;-77
2023/03/02 02:35:33;;;;;;;638.97;37.78;;;0.20;99.90;;;-1.56;100.00;102281.94;5056244;28;20111;-77
2023/03/02 02:38:06;;;;;;;837.65;39.47;;;0.20;99.90;;;-1.52;100.00;102276.91;5055074;28;20416;-77
2023/03/02 02:40:55;;;;;;;763.22;38.67;;;0.20;99.90;;;-1.43;100.00;102290.91;5028823;28;20036;-78
2023/03/02 02:43:22;;;;;;;788.47;39.17;;;0.20;99.90;;;-1.45;100.00;102289.19;5036606;28;20051;-77
2023/03/02 02:45:54;;;;;;;760.63;39.55;;;0.20;99.90;;;-1.43;100.00;102298.66;5036601;28;20078;-78
2023/03/02 02:48:25;;;;;;;637.92;35.38;;;0.20;99.90;;;-1.53;100.00;102295.84;5021595;28;20637;-77
2023/03/02 02:50:59;;;;;;;577.95;29.88;;;0.20;99.90;;;-1.56;100.00;102302.63;5044420;28;20036;-78
2023/03/02 02:53:57;;;;;;;536.72;27.90;;;0.10;99.90;;;-1.59;100.00;102302.53;5049683;28;20146;-78
2023/03/02 02:56:33;;;;;;;661.63;34.97;;;0.10;99.90;;;-1.57;100.00;102301.75;5032207;28;21302;-78
2023/03/02 02:59:23;;;;;;;215.55;26.88;;;0.10;99.90;;;-1.50;100.00;102306.25;5050692;28;20441;-77
2023/03/02 03:01:51;;;;;;;508.88;34.60;;;0.20;99.90;;;-1.41;100.00;102302.19;5063910;28;20024;-78
2023/03/02 03:04:31;;;;;;;457.73;32.65;;;0.30;99.90;;;-1.36;100.00;102291.16;5059843;28;20090;-78
2023/03/02 03:07:04;;;;;;;569.05;34.65;;;0.30;99.90;;;-1.29;100.00;102295.63;5045601;28;20088;-78
2023/03/02 03:09:31;;;;;;;201.55;28.88;;;0.30;99.90;;;-1.21;100.00;102292.38;5033402;28;20046;-78
2023/03/02 03:12:11;;;;;;;327.40;30.20;;;0.40;99.90;;;-1.19;100.00;102295.88;5041121;28;20500;-78
2023/03/02 03:14:40;;;;;;;464.38;31.73;;;0.40;99.90;;;-1.14;100.00;102300.34;5030828;28;20041;-77
2023/03/02 03:17:11;;;;;;;661.05;34.67;;;0.50;99.90;;;-1.14;100.00;102299.50;5051468;28;20042;-78
2023/03/02 03:19:44;;;;;;;626.58;33.40;;;0.50;99.90;;;-1.14;100.00;102312.41;5010975;28;20036;-78
2023/03/02 03:22:13;;;;;;;849.22;41.88;;;0.40;99.90;;;-1.29;100.00;102307.69;5027057;28;20740;-79
2023/03/02 03:24:46;;;;;;;665.97;35.58;;;0.40;99.90;;;-1.24;100.00;102306.09;5021889;28;20044;-78
2023/03/02 03:27:14;;;;;;;610.47;34.22;;;0.40;99.90;;;-1.30;100.00;102301.63;5036121;28;20032;-78
2023/03/02 03:29:47;;;;;;;651.75;35.38;;;0.30;99.90;;;-1.31;100.00;102307.66;5014927;28;20673;-78
2023/03/02 03:32:13;;;;;;;204.88;25.92;;;0.40;99.90;;;-1.29;100.00;102313.72;5048738;28;20028;-78
2023/03/02 03:34:42;;;;;;;837.40;40.63;;;0.30;99.90;;;-1.25;100.00;102310.41;5022788;28;20048;-79
2023/03/02 03:37:17;;;;;;;530.92;31.83;;;0.30;99.90;;;-1.43;100.00;102307.28;5034926;28;20047;-79
2023/03/02 03:39:44;;;;;;;574.55;33.72;;;0.20;99.90;;;-1.61;100.00;102309.38;5041851;28;20083;-79
2023/03/02 03:42:10;;;;;;;654.88;36.50;;;0.20;99.90;;;-1.50;100.00;102303.66;5019302;28;20483;-78
2023/03/02 03:44:35;;;;;;;672.17;41.65;;;0.20;99.90;;;-1.50;100.00;102314.00;5030566;28;20028;-79
2023/03/02 03:47:08;;;;;;;280.50;30.08;;;0.20;99.90;;;-1.45;100.00;102309.84;5001369;28;20696;-79
2023/03/02 03:49:35;;;;;;;825.97;43.47;;;0.30;99.90;;;-1.34;100.00;102309.25;4979445;28;20052;-78
2023/03/02 03:52:02;;;;;;;541.10;36.53;;;0.30;99.90;;;-1.38;100.00;102302.25;4978276;28;20115;-78
2023/03/02 03:54:28;;;;;;;784.40;42.28;;;0.30;99.90;;;-1.44;100.00;102297.81;5006543;28;20033;-79
2023/03/02 03:57:02;;;;;;;652.45;38.15;;;0.30;99.90;;;-1.36;100.00;102300.59;4986259;28;20051;-79
2023/03/02 03:59:28;;;;;;;262.02;30.13;;;0.30;99.90;;;-1.38;100.00;102294.50;5025334;28;20064;-79
2023/03/02 04:02:05;;;;;;;583.65;38.03;;;0.30;99.90;;;-1.36;100.00;102292.84;5050043;28;20048;-79
2023/03/02 04:04:34;;;;;;;617.13;39.53;;;0.30;99.90;;;-1.53;100.00;102287.22;4996219;28;20048;-79
2023/03/02 04:07:00;;;;;;;433.40;30.23;;;0.30;99.90;;;-1.51;100.00;102285.53;4996333;28;20111;-79
2023/03/02 04:09:36;;;;;;;;;;;;;;;;;;;;;
2023/03/02 04:12:04;;;;;;;792.95;41.10;;;0.30;99.90;;;-1.33;100.00;102285.19;4998678;28;20036;-79
2023/03/02 04:14:37;;;;;;;763.47;40.75;;;0.30;99.90;;;-1.27;100.00;102291.38;5065041;28;20060;-79
2023/03/02 04:17:05;;;;;;;707.78;36.22;;;0.30;99.90;;;-1.31;100.00;102288.69;5050829;28;20048;-79
2023/03/02 04:19:32;;;;;;;816.58;44.08;;;0.40;99.90;;;-1.27;100.00;102295.69;5044326;28;20523;-79
2023/03/02 04:22:07;;;;;;;628.42;35.75;;;0.40;99.90;;;-1.29;100.00;102287.88;5025699;28;20040;-79
2023/03/02 04:24:33;;;;;;;316.15;28.33;;;0.40;99.90;;;-1.27;100.00;102282.78;4978583;28;20036;-79
2023/03/02 04:26:58;;;;;;;469.67;33.33;;;0.40;99.90;;;-1.18;100.00;102284.72;5030918;28;20038;-79
2023/03/02 04:29:32;;;;;;;505.88;35.47;;;0.50;99.90;;;-1.09;100.00;102285.81;5027423;28;20040;-79
2023/03/02 04:31:57;;;;;;;653.22;37.53;;;0.60;99.90;;;-1.04;100.00;102292.00;4991239;28;20085;-79
2023/03/02 04:34:26;;;;;;;218.90;27.60;;;0.60;99.90;;;-0.97;100.00;102287.88;4984694;28;20074;-79
2023/03/02 04:36:57;;;;;;;557.45;37.85;;;0.60;99.90;;;-0.92;100.00;102294.03;4987352;28;20040;-79
2023/03/02 04:39:25;;;;;;;320.15;31.35;;;0.70;99.90;;;-0.88;100.00;102290.69;5029579;28;20058;-80
2023/03/02 04:41:51;;;;;;;551.42;36.03;;;0.70;99.90;;;-0.86;100.00;102307.13;5028032;28;20096;-79
2023/03/02 04:44:18;;;;;;;139.45;28.10;;;0.70;99.90;;;-0.83;100.00;102298.56;5043056;28;20046;-79
2023/03/02 04:46:50;;;;;;;380.77;31.98;;;0.70;99.90;;;-0.77;100.00;102303.03;5054075;28;20433;-79
2023/03/02 04:49:18;;;;;;;471.10;35.92;;;0.80;99.90;;;-0.76;100.00;102294.41;4996834;28;20036;-79
2023/03/02 04:51:47;;;;;;;398.25;32.00;;;0.80;99.90;;;-0.76;100.00;102295.28;4970738;28;20049;-79
2023/03/02 04:54:23;;;;;;;725.40;44.05;;;0.80;99.90;;;-0.76;100.00;102304.75;4957912;28;20072;-80
2023/03/02 04:56:50;;;;;;;369.75;32.45;;;0.80;99.90;;;-0.76;100.00;102297.88;5029965;28;20050;-79
2023/03/02 04:59:26;;;;;;;258.25;28.60;;;0.80;99.90;;;-0.73;100.00;102294.50;4981669;28;20051;-80
2023/03/02 05:02:03;;;;;;;292.65;31.63;;;0.90;99.90;;;-0.69;100.00;102292.03;5036158;28;20036;-80
2023/03/02 05:04:30;;;;;;;857.75;47.33;;;0.90;99.90;;;-0.65;100.00;102298.13;4987369;28;20041;-79
2023/03/02 05:06:57;;;;;;;789.28;42.20;;;0.90;99.90;;;-0.62;100.00;102293.94;4998225;28;20041;-79
2023/03/02 05:09:29;;;;;;;667.67;40.28;;;0.90;99.90;;;-0.59;100.00;102294.84;4977586;28;20033;-80
2023/03/02 05:11:57;;;;;;;671.58;39.05;;;1.00;99.90;;;-0.61;100.00;102292.19;5036434;28;20036;-80
2023/03/02 05:14:23;;;;;;;712.30;39.35;;;1.00;99.90;;;-0.58;100.00;102293.97;5030376;28;20043;-80
2023/03/02 05:16:49;;;;;;;720.42;39.75;;;1.00;99.90;;;-0.62;100.00;102291.34;4986594;28;20043;-80
2023/03/02 05:19:16;;;;;;;510.88;34.97;;;1.00;99.90;;;-0.60;100.00;102288.78;4985450;28;20500;-80
2023/03/02 05:21:47;;;;;;;194.55;29.13;;;1.00;99.90;;;-0.57;100.00;102285.41;5019038;28;20020;-80
2023/03/02 05:24:14;;;;;;;450.90;34.00;;;1.00;99.90;;;-0.55;100.00;102286.31;4986245;28;20040;-79
2023/03/02 05:26:40;;;;;;;476.17;35.40;;;1.00;99.90;;;-0.55;100.00;102283.72;4994001;28;20037;-79
2023/03/02 05:29:07;;;;;;;300.60;29.98;;;1.00;99.90;;;-0.55;100.00;102274.25;4969171;28;20045;-80
2023/03/02 05:31:42;;;;;;;454.70;34.25;;;1.00;99.90;;;-0.53;100.00;102277.75;5013597;28;20476;-79
2023/03/02 05:34:12;;;;;;;386.33;32.42;;;2.10;99.90;;;-0.53;100.00;102271.72;5029708;28;20044;-80
2023/03/02 05:36:43;;;;;;;381.92;33.33;;;1.00;99.90;;;-0.53;100.00;102282.06;5029196;28;20120;-79
2023/03/02 05:39:09;;;;;;;591.28;38.03;;;1.00;99.90;;;-0.48;100.00;102290.78;5015875;28;20052;-79
2023/03/02 05:41:36;;;;;;;602.20;38.67;;;1.10;99.90;;;-0.47;100.00;102290.84;5045717;28;20032;-80
2023/03/02 05:44:03;;;;;;;541.17;36.80;;;1.10;99.90;;;-0.44;100.00;102290.03;5045759;28;20438;-79
2023/03/02 05:46:29;;;;;;;514.92;44.30;;;1.10;99.90;;;-0.44;100.00;102282.25;5037187;28;20027;-78
2023/03/02 05:48:59;;;;;;;362.25;35.63;;;1.10;99.90;;;-0.43;100.00;102277.13;5016434;28;20357;-80
2023/03/02 05:51:26;;;;;;;222.75;32.33;;;1.10;99.90;;;-0.38;100.00;102279.81;5008770;28;20103;-79
2023/03/02 05:53:52;;;;;;;765.50;43.80;;;1.20;99.90;;;-0.35;100.00;102282.47;5071369;28;20025;-79
2023/03/02 05:56:21;;;;;;;265.65;31.95;;;1.20;99.90;;;-0.40;100.00;102281.50;5046292;28;20116;-78
2023/03/02 05:58:49;;;;;;;355.20;34.08;;;1.20;99.90;;;-0.34;100.00;102275.59;5024777;28;20028;-79
2023/03/02 06:01:15;;;;;;;642.53;39.53;;;1.20;99.90;;;-0.34;100.00;102279.06;5038555;28;20052;-79
2023/03/02 06:03:42;;;;;;;571.67;36.72;;;1.20;99.90;;;-0.32;100.00;102286.88;5035244;28;20048;-79
2023/03/02 06:06:12;;;;;;;299.85;30.50;;;1.20;99.90;;;-0.30;100.00;102280.00;5027798;28;20039;-79
2023/03/02 06:08:47;;;;;;;566.30;39.20;;;1.20;99.90;;;-0.29;100.00;102276.56;4992440;28;20044;-80
2023/03/02 06:11:13;;;;;;;379.98;33.28;;;1.20;99.90;;;-0.30;100.00;102280.88;5018813;28;20041;-80
2023/03/02 06:13:39;;;;;;;453.73;36.13;;;1.20;99.90;;;-0.28;100.00;102276.63;5047737;28;20082;-79
2023/03/02 06:16:14;;;;;;;311.85;34.63;;;1.30;99.90;;;-0.24;100.00;102273.25;4961693;28;20043;-79
2023/03/02 06:18:40;;;;;;;683.92;40.65;;;1.30;99.90;;;-0.27;100.00;102275.75;5008630;28;20036;-79
2023/03/02 06:21:06;;;;;;;259.15;30.48;;;1.30;99.90;;;-0.26;100.00;102284.41;5024745;28;20103;-79
2023/03/02 06:23:39;;;;;;;412.90;32.72;;;1.30;99.90;;;-0.25;100.00;102276.69;4990523;28;20034;-80
2023/03/02 06:26:10;;;;;;;619.30;38.30;;;1.30;99.90;;;-0.21;100.00;102275.91;5011496;28;20058;-80
2023/03/02 06:28:40;;;;;;;609.63;34.75;;;1.30;99.90;;;-0.26;100.00;102276.63;5037487;28;20121;-78
2023/03/02 06:31:08;;;;;;;637.92;38.97;;;1.30;99.90;;;-0.30;100.00;102280.88;5005764;28;20028;-80
2023/03/02 06:33:36;;;;;;;601.10;35.67;;;1.30;99.90;;;-0.32;100.00;102276.53;5002356;28;20034;-80
2023/03/02 06:36:11;;;;;;;411.95;31.00;;;1.30;99.90;;;-0.23;100.00;102276.72;4966019;28;20048;-80
2023/03/02 06:38:37;;;;;;;719.63;37.53;;;1.30;99.90;;;-0.25;100.00;102273.22;5026010;28;20100;-79
2023/03/02 06:41:03;;;;;;;450.08;30.85;;;1.30;99.90;;;-0.21;100.00;102275.03;5021703;28;20169;-79
2023/03/02 06:43:29;;;;;;;373.67;31.85;;;1.30;99.90;;;-0.21;100.00;102267.28;4975174;28;20115;-79
2023/03/02 06:45:55;;;;;;;489.38;33.38;;;1.40;99.90;;;-0.14;100.00;102271.75;5009804;28;20040;-80
2023/03/02 06:48:29;;;;;;;324.58;26.83;;;1.30;99.90;;;-0.26;100.00;102266.28;4974433;28;20103;-79
2023/03/02 06:50:55;;;;;;;369.40;29.85;;;1.30;99.90;;;-0.25;100.00;102274.09;4938067;28;20047;-79
2023/03/02 06:53:22;;;;;;;240.93;28.55;;;1.40;99.90;;;-0.16;100.00;102278.59;5013347;28;20032;-78
2023/03/02 06:55:57;;;;;;;529.38;35.35;;;1.40;99.90;;;-0.07;100.00;102277.94;5021023;28;20056;-80
2023/03/02 06:58:23;;;;;;;303.50;24.15;;;1.30;99.90;;;-0.30;100.00;102291.25;5006520;28;20038;-79
2023/03/02 07:00:49;;;;;;;412.40;31.00;;;1.30;99.90;;;-0.33;100.00;102291.16;4980931;28;20050;-79
2023/03/02 07:03:16;;;;;;;420.75;30.83;;;1.40;99.90;;;-0.34;100.00;102284.25;5010485;28;20040;-79
2023/03/02 07:05:47;;;;;;;426.83;30.88;;;1.30;99.90;;;-0.29;100.00;102277.44;5001389;28;20028;-79
2023/03/02 07:08:13;;;;;;;405.05;30.33;;;1.30;99.90;;;-0.25;100.00;102279.25;5007364;28;20036;-79
2023/03/02 07:10:39;;;;;;;322.58;27.73;;;1.40;99.90;;;-0.23;100.00;102280.19;5027576;28;20093;-79
2023/03/02 07:13:05;;;;;;;338.13;26.60;;;1.40;99.90;;;-0.25;100.00;102281.84;5000804;28;20103;-79
2023/03/02 07:15:30;;;;;;;399.02;27.75;;;1.30;99.90;;;-0.42;100.00;102278.00;5018611;28;20675;-78
2023/03/02 07:18:05;;;;;;;390.92;29.05;;;1.20;99.90;;;-0.38;100.00;102282.41;4990778;28;20116;-79
2023/03/02 07:20:33;;;;;;;305.60;25.65;;;1.20;99.90;;;-0.30;100.00;102275.72;4992674;28;20757;-79
2023/03/02 07:22:58;;;;;;;382.77;28.13;;;1.30;99.90;;;-0.28;100.00;102276.63;4974110;28;20102;-79
2023/03/02 07:25:32;;;;;;;234.65;23.80;;;1.30;99.90;;;-0.24;100.00;102270.69;4974189;28;20029;-79
2023/03/02 07:27:58;;;;;;;168.00;22.60;;;1.40;99.90;;;-0.11;100.00;102283.88;5019286;28;20605;-78
2023/03/02 07:30:24;;;;;;;187.15;24.88;;;1.40;99.90;;;-0.03;100.00;102279.75;5032628;28;20060;-79
2023/03/02 07:32:50;;;;;;;205.77;24.13;;;1.50;99.90;;;0.06;100.00;102282.53;4965092;28;20075;-79
2023/03/02 07:35:24;;;;;;;178.32;23.88;;;1.60;99.90;;;0.15;100.00;102287.03;4979215;28;20036;-79
2023/03/02 07:37:51;;;;;;;206.20;26.85;;;1.60;99.90;;;0.16;100.00;102288.78;4979857;28;20640;-78
2023/03/02 07:40:17;;;;;;;270.60;26.65;;;1.60;99.90;;;0.10;100.00;102286.94;5047565;28;20053;-79
2023/03/02 07:42:43;;;;;;;270.10;26.63;;;1.70;99.90;;;0.06;100.00;102279.94;5015976;28;20028;-79
2023/03/02 07:45:15;;;;;;;141.77;22.88;;;1.60;99.90;;;0.09;100.00;102279.16;4940283;28;20044;-78
2023/03/02 07:47:41;;;;;;;211.20;24.88;;;1.60;99.90;;;0.10;100.00;102276.56;5024582;28;20099;-78
2023/03/02 07:50:08;;;;;;;177.75;23.50;;;1.60;99.90;;;0.06;100.00;102285.13;4967761;28;20122;-79
2023/03/02 07:52:34;;;;;;;167.13;24.38;;;1.60;99.90;;;0.11;100.00;102283.53;5054211;28;20144;-79
2023/03/02 07:55:00;;;;;;;159.73;23.27;;;1.70;99.90;;;0.19;100.00;102291.44;5045693;28;20759;-78
2023/03/02 07:57:33;;;;;;;175.52;23.85;;;1.70;99.90;;;0.26;100.00;102287.25;5056688;28;20549;-79
2023/03/02 07:59:58;;;;;;;201.02;24.23;;;1.70;99.90;;;0.32;100.00;102289.97;4984207;28;20089;-78
2023/03/02 08:02:27;;;;;;;155.98;23.20;;;1.80;99.90;;;0.35;100.00;102285.75;5025233;28;20032;-79
2023/03/02 08:04:58;;;;;;;117.47;21.95;;;1.80;99.90;;;0.40;100.00;102291.03;5031824;28;20024;-79
2023/03/02 08:07:24;;;;;;;136.25;21.40;;;1.80;99.90;;;0.28;100.00;102294.25;5029235;28;20234;-78
2023/03/02 08:09:50;;;;;;;184.68;22.33;;;1.80;99.90;;;0.19;100.00;102300.09;5023799;28;20032;-78
2023/03/02 08:12:16;;;;;;;164.32;19.77;;;1.80;99.90;;;0.07;100.00;102305.00;5035615;28;20116;-78
2023/03/02 08:14:42;;;;;;;140.02;21.92;;;1.80;99.90;;;0.16;100.00;102291.38;5037050;28;20174;-78
2023/03/02 08:17:07;;;;;;;85.30;18.48;;;1.80;99.90;;;0.26;100.00;102297.63;5023235;28;20152;-78
2023/03/02 08:19:36;;;;;;;112.90;20.58;;;1.80;99.90;;;0.35;100.00;102303.03;5053050;22;20047;-78
2023/03/02 08:22:02;;;;;;;92.72;19.63;;;1.90;99.90;;;0.42;100.00;102294.50;5007752;28;20108;-79
2023/03/02 08:24:28;;;;;;;93.05;19.02;;;1.90;99.90;;;0.51;100.00;102297.28;4993241;28;20149;-78
2023/03/02 08:26:54;;;;;;;76.55;18.45;;;1.90;99.90;;;0.53;100.00;102297.31;5044113;28;20033;-78
2023/03/02 08:29:23;;;;;;;69.28;17.35;;;2.00;99.90;;;0.52;100.00;102295.56;5016810;28;20094;-77
2023/03/02 08:31:49;;;;;;;103.63;19.15;;;2.00;99.90;;;0.42;100.00;102286.75;5012246;28;20025;-77
2023/03/02 08:34:17;;;;;;;108.45;19.48;;;2.00;99.90;;;0.55;100.00;102291.31;5046431;28;20100;-78
2023/03/02 08:36:43;;;;;;;109.85;19.10;;;2.10;99.90;;;0.63;100.00;102282.81;5026854;28;20118;-78
2023/03/02 08:39:09;;;;;;;72.78;19.05;;;2.10;99.90;;;0.73;99.81;102287.34;4997882;28;20106;-77
2023/03/02 08:41:35;;;;;;;89.40;20.10;;;2.20;99.90;;;0.85;99.88;102286.72;5008685;28;20030;-78
2023/03/02 08:44:01;;;;;;;147.10;20.10;;;2.30;99.90;;;0.96;99.79;102290.38;5028406;28;20029;-77
2023/03/02 08:46:27;;;;;;;116.43;20.20;;;2.40;99.90;;;1.04;99.25;102288.78;5001829;28;20517;-77
2023/03/02 08:48:53;;;;;;;124.10;20.23;;;2.50;99.90;;;1.07;98.73;102285.38;5019119;28;20044;-78
2023/03/02 08:51:24;;;;;;;116.63;18.33;;;2.50;99.90;;;1.03;98.33;102290.47;5036596;28;20032;-77
2023/03/02 08:53:54;;;;;;;131.25;19.02;;;2.40;99.90;;;0.99;97.38;102293.00;5014548;28;20032;-77
2023/03/02 08:56:31;;;;;;;129.60;19.35;;;2.40;99.90;;;0.99;97.25;102291.31;5022833;28;20026;-77
2023/03/02 08:59:04;;;;;;;72.63;18.05;;;2.40;99.90;;;1.07;97.50;102296.63;5006881;28;20042;-77
2023/03/02 09:01:34;;;;;;;120.28;18.83;;;2.50;99.90;;;1.07;97.11;102296.63;5014682;28;20040;-77
2023/03/02 09:04:01;;;;;;;116.90;17.85;;;2.30;99.90;;;0.66;96.72;102293.25;5022079;28;20037;-77
2023/03/02 09:06:30;;;;;;;103.85;18.40;;;2.30;99.90;;;0.64;96.76;102289.75;4980739;28;20068;-77
2023/03/02 09:08:57;;;;;;;112.78;19.17;;;2.20;99.90;;;0.67;97.12;102284.63;5021010;28;20040;-77
2023/03/02 09:11:26;;;;;;;91.35;19.02;;;2.30;99.90;;;0.92;97.46;102284.25;5011987;28;20041;-76
2023/03/02 09:13:55;;;;;;;77.32;17.90;;;2.40;99.90;;;1.05;96.96;102285.34;5017203;28;20037;-77
2023/03/02 09:16:24;;;;;;;76.05;17.38;;;2.50;99.90;;;1.27;97.25;102276.19;5002407;28;20041;-77
2023/03/02 09:18:52;;;;;;;68.47;16.88;;;2.70;99.90;;;1.39;97.11;102276.41;5049007;22;20045;-77
2023/03/02 09:21:18;;;;;;;51.88;16.80;;;2.80;99.90;;;1.60;96.97;102283.66;5049729;28;20101;-76
2023/03/02 09:23:44;;;;;;;91.57;18.48;;;2.90;99.90;;;1.74;96.32;102281.25;5048145;28;20114;-77
2023/03/02 09:26:11;;;;;;;66.93;17.33;;;3.10;99.90;;;1.87;96.09;102277.13;5016745;28;20029;-76
2023/03/02 09:28:38;;;;;;;69.38;17.13;;;3.20;99.90;;;1.97;95.00;102275.53;5046894;28;20669;-77
2023/03/02 09:31:07;;;;;;;51.83;17.00;;;3.30;99.90;;;2.11;94.72;102279.16;5042693;28;20032;-76
2023/03/02 09:33:36;;;;;;;49.45;16.17;;;3.40;99.90;;;2.23;94.05;102279.34;5003675;28;20107;-75
2023/03/02 09:36:17;;;;;;;51.38;15.95;;;3.50;99.90;;;2.23;93.26;102294.06;5018994;28;20044;-77
2023/03/02 09:38:47;;;;;;;50.70;16.25;;;3.60;99.90;;;2.32;92.37;102288.97;5050790;28;20140;-77
2023/03/02 09:41:56;;;;;;;39.60;13.68;;;3.70;99.90;;;2.31;92.06;102286.34;5024445;28;20304;-77
2023/03/02 09:45:16;;;;;;;33.08;12.02;;;3.70;99.90;;;2.24;90.92;102288.88;5037212;28;20037;-77
2023/03/02 09:48:21;;;;;;;39.63;14.38;;;3.60;99.90;;;2.09;90.56;102290.41;5040587;28;20071;-78
2023/03/02 09:51:33;;;;;;;32.90;13.55;;;3.60;99.90;;;2.20;90.74;102287.13;5038083;28;20128;-77
2023/03/02 09:54:20;;;;;;;36.63;13.63;;;3.60;99.90;;;2.24;90.12;102282.81;5015980;28;20075;-77
2023/03/02 09:56:54;;;;;;;34.80;13.10;;;3.50;99.90;;;2.23;89.86;102279.34;5036939;28;20041;-77
2023/03/02 09:59:44;;;;;;;39.03;14.23;;;3.60;99.90;;;2.26;90.17;102287.16;5037001;28;20029;-77
2023/03/02 10:02:34;;;;;;;41.50;15.32;;;3.70;99.90;;;2.32;90.13;102282.91;5069941;28;20040;-77
2023/03/02 10:05:07;;;;;;;50.35;14.73;;;3.70;99.90;;;2.38;90.18;102276.06;5007600;28;20047;-77
2023/03/02 10:07:37;;;;;;;48.10;15.18;;;3.70;99.90;;;2.31;89.87;102282.06;5012568;28;22145;-78
2023/03/02 10:10:46;;;;;;;36.42;13.95;;;3.70;99.90;;;2.34;89.79;102279.47;5040955;28;20037;-76
2023/03/02 10:13:46;;;;;;;37.83;14.43;;;3.70;99.90;;;2.55;89.26;102284.06;5018505;28;20032;-76